Time;durP1;ratioP1;P1;durP2;ratioP2;P2;SDS_P1;SDS_P2;PMS_P1;PMS_P2;Temp;Humidity;BMP_temperature;BMP_pressure;BME280_temperature;BME280_humidity;BME280_pressure;Samples;Min_cycle;Max_cycle;Signal;HPM_P1;HPM_P2
2023/08/02 00:00:36;;;;;;;4.68;2.50;;;13.60;99.90;;;;;;5085421;28;20093;-85
2023/08/02 00:03:04;;;;;;;5.10;2.88;;;13.60;99.90;;;;;;5078300;28;20032;-85
2023/08/02 00:05:31;;;;;;;5.75;3.28;;;13.60;99.90;;;;;;5079958;28;21030;-85
2023/08/02 00:07:57;;;;;;;8.75;3.38;;;13.60;99.90;;;;;;5078688;28;20017;-85
2023/08/02 00:10:23;;;;;;;5.53;2.85;;;13.60;99.90;;;;;;5068722;28;20409;-85
2023/08/02 00:12:51;;;;;;;4.32;2.38;;;13.50;99.90;;;;;;5082949;28;20035;-85
2023/08/02 00:15:17;;;;;;;7.65;2.65;;;13.50;99.90;;;;;;5082959;28;20373;-83
2023/08/02 00:17:43;;;;;;;5.45;2.53;;;13.50;99.90;;;;;;5072214;28;20047;-85
2023/08/02 00:20:09;;;;;;;5.82;2.83;;;13.50;99.90;;;;;;5068926;28;20029;-85
2023/08/02 00:22:35;;;;;;;7.03;3.20;;;13.50;99.90;;;;;;5065792;28;20047;-84
2023/08/02 00:25:02;;;;;;;4.70;2.85;;;13.50;99.90;;;;;;5085874;28;20032;-85
2023/08/02 00:27:28;;;;;;;7.45;3.00;;;13.50;99.90;;;;;;5074560;28;20028;-84
2023/08/02 00:29:53;;;;;;;4.78;2.78;;;13.50;99.90;;;;;;5096703;28;20058;-85
2023/08/02 00:32:19;;;;;;;5.05;2.70;;;13.50;99.90;;;;;;5046601;28;20029;-84
2023/08/02 00:34:45;;;;;;;5.97;3.33;;;13.50;99.90;;;;;;5084677;28;20033;-84
2023/08/02 00:37:12;;;;;;;6.00;2.97;;;13.50;99.90;;;;;;5075377;28;20043;-83
2023/08/02 00:39:38;;;;;;;7.65;3.30;;;13.50;99.90;;;;;;5091605;28;20408;-84
2023/08/02 00:42:04;;;;;;;5.38;2.83;;;13.50;99.90;;;;;;5085173;28;20016;-84
2023/08/02 00:44:30;;;;;;;4.85;2.78;;;13.50;99.90;;;;;;5054767;28;20593;-83
2023/08/02 00:46:55;;;;;;;7.55;3.10;;;13.50;99.90;;;;;;5056188;28;20512;-83
2023/08/02 00:49:21;;;;;;;5.93;3.17;;;13.50;99.90;;;;;;5062596;28;20060;-84
2023/08/02 00:51:47;;;;;;;5.13;2.55;;;13.50;99.90;;;;;;5054892;28;20028;-84
2023/08/02 00:54:13;;;;;;;7.25;2.70;;;13.50;99.90;;;;;;5062168;28;20025;-85
2023/08/02 00:56:39;;;;;;;6.03;2.88;;;13.50;99.90;;;;;;5067123;28;20497;-83
2023/08/02 00:59:08;;;;;;;4.93;2.80;;;13.50;99.90;;;;;;5063845;28;20040;-83
2023/08/02 01:01:34;;;;;;;6.18;3.00;;;13.60;99.90;;;;;;5041265;28;20127;-84
2023/08/02 01:04:01;;;;;;;9.63;2.83;;;13.60;99.90;;;;;;5052881;28;20079;-84
2023/08/02 01:06:39;;;;;;;5.70;2.88;;;13.60;99.90;;;;;;5070576;28;20029;-83
2023/08/02 01:09:16;;;;;;;5.75;2.92;;;13.60;99.90;;;;;;5061735;28;20517;-82
2023/08/02 01:12:07;;;;;;;6.20;3.00;;;13.50;99.90;;;;;;5062883;28;20031;-84
2023/08/02 01:14:34;;;;;;;7.65;2.85;;;13.50;99.90;;;;;;5051509;28;20464;-86
2023/08/02 01:17:02;;;;;;;4.22;2.95;;;13.50;99.90;;;;;;5076585;28;20036;-84
2023/08/02 01:19:28;;;;;;;5.18;3.00;;;13.50;99.90;;;;;;5071548;28;20036;-84
2023/08/02 01:21:54;;;;;;;9.82;2.80;;;13.50;99.90;;;;;;5038523;28;20040;-84
2023/08/02 01:24:27;;;;;;;9.32;3.08;;;13.50;99.90;;;;;;5079194;28;20032;-84
2023/08/02 01:26:54;;;;;;;12.35;3.40;;;13.60;99.90;;;;;;5071589;28;20039;-85
2023/08/02 01:29:24;;;;;;;5.68;3.05;;;13.50;99.90;;;;;;5054798;28;20024;-84
2023/08/02 01:31:52;;;;;;;7.10;3.33;;;13.50;99.90;;;;;;5071430;28;20135;-84
2023/08/02 01:34:19;;;;;;;5.90;2.97;;;13.50;99.90;;;;;;5072573;28;20028;-84
2023/08/02 01:36:44;;;;;;;5.20;3.05;;;13.40;99.90;;;;;;5071105;28;20078;-84
2023/08/02 01:39:11;;;;;;;6.00;3.13;;;13.40;99.90;;;;;;5065306;28;20036;-85
2023/08/02 01:41:36;;;;;;;6.57;3.00;;;13.40;99.90;;;;;;5044125;28;20040;-86
2023/08/02 01:44:02;;;;;;;5.93;2.95;;;13.40;99.90;;;;;;5076269;28;20094;-83
2023/08/02 01:46:28;;;;;;;4.88;2.90;;;13.40;99.90;;;;;;5058275;28;20032;-86
2023/08/02 01:48:53;;;;;;;7.57;3.20;;;13.30;99.90;;;;;;5055411;28;20115;-85
2023/08/02 01:51:19;;;;;;;5.10;3.20;;;13.40;99.90;;;;;;5071884;28;20040;-84
2023/08/02 01:53:45;;;;;;;8.60;2.90;;;13.40;99.90;;;;;;5050013;28;20025;-84
2023/08/02 01:56:10;;;;;;;5.97;3.05;;;13.40;99.90;;;;;;5075769;28;20043;-84
2023/08/02 01:58:36;;;;;;;5.35;3.08;;;13.40;99.90;;;;;;5055742;28;20064;-83
2023/08/02 02:01:02;;;;;;;4.45;2.53;;;13.30;99.90;;;;;;5037374;28;20058;-83
2023/08/02 02:03:28;;;;;;;5.72;3.08;;;13.30;99.90;;;;;;5074605;28;20119;-83
2023/08/02 02:05:54;;;;;;;4.30;2.72;;;13.40;99.90;;;;;;5066698;28;20102;-84
2023/08/02 02:08:21;;;;;;;6.53;2.97;;;13.30;99.90;;;;;;5075533;28;20033;-84
2023/08/02 02:10:51;;;;;;;9.70;3.20;;;13.30;99.90;;;;;;5076724;28;20025;-84
2023/08/02 02:13:17;;;;;;;6.57;3.08;;;13.40;99.90;;;;;;5069877;28;20032;-84
2023/08/02 02:15:43;;;;;;;5.65;3.05;;;13.30;99.90;;;;;;5083279;28;20037;-84
2023/08/02 02:18:09;;;;;;;6.50;3.50;;;13.30;99.90;;;;;;5078385;28;20404;-84
2023/08/02 02:20:35;;;;;;;8.40;3.17;;;13.30;99.90;;;;;;5079637;28;20020;-84
2023/08/02 02:23:02;;;;;;;5.25;2.92;;;13.30;99.90;;;;;;5074595;28;20032;-84
2023/08/02 02:25:45;;;;;;;8.50;3.67;;;13.30;99.90;;;;;;5082494;28;20032;-84
2023/08/02 02:28:12;;;;;;;7.47;3.30;;;13.30;99.90;;;;;;5075423;28;20036;-85
2023/08/02 02:30:38;;;;;;;5.72;3.03;;;13.30;99.90;;;;;;5078058;28;20036;-83
2023/08/02 02:33:04;;;;;;;7.25;3.22;;;13.30;99.90;;;;;;5048788;28;20071;-84
2023/08/02 02:35:30;;;;;;;7.65;3.70;;;13.30;99.90;;;;;;5090209;28;20473;-84
2023/08/02 02:37:56;;;;;;;6.43;3.53;;;13.40;99.90;;;;;;5073220;28;20128;-85
2023/08/02 02:40:22;;;;;;;10.07;3.90;;;13.40;99.90;;;;;;5070317;28;20028;-83
2023/08/02 02:42:47;;;;;;;12.15;3.40;;;13.40;99.90;;;;;;5069989;28;20032;-83
2023/08/02 02:45:13;;;;;;;6.78;3.35;;;13.40;99.90;;;;;;5070472;28;20420;-85
2023/08/02 02:47:40;;;;;;;6.97;3.40;;;13.30;99.90;;;;;;5069165;28;20047;-84
2023/08/02 02:50:08;;;;;;;8.30;3.25;;;13.40;99.90;;;;;;5067844;28;20385;-85
2023/08/02 02:52:34;;;;;;;6.40;3.28;;;13.30;99.90;;;;;;5090729;28;20126;-84
2023/08/02 02:54:59;;;;;;;11.77;3.80;;;13.40;99.90;;;;;;5075854;28;20047;-84
2023/08/02 02:57:26;;;;;;;6.05;3.28;;;13.40;99.90;;;;;;5073903;28;20054;-83
2023/08/02 02:59:51;;;;;;;4.22;3.20;;;13.30;99.90;;;;;;5069246;28;20051;-85
2023/08/02 03:02:17;;;;;;;9.15;3.00;;;13.30;99.90;;;;;;5051166;28;20385;-86
2023/08/02 03:04:43;;;;;;;10.07;3.53;;;13.30;99.90;;;;;;5083474;28;20028;-84
2023/08/02 03:07:09;;;;;;;6.50;3.40;;;13.30;99.90;;;;;;5074078;28;20033;-86
2023/08/02 03:09:35;;;;;;;5.13;3.20;;;13.30;99.90;;;;;;5076113;28;20396;-84
2023/08/02 03:12:01;;;;;;;7.55;3.53;;;13.30;99.90;;;;;;5073115;28;20048;-85
2023/08/02 03:14:27;;;;;;;4.78;3.30;;;13.20;99.90;;;;;;5042687;28;20481;-84
2023/08/02 03:16:53;;;;;;;8.88;3.30;;;13.30;99.90;;;;;;5084447;28;20515;-84
2023/08/02 03:19:19;;;;;;;4.57;3.22;;;13.30;99.90;;;;;;5089321;28;20111;-84
2023/08/02 03:21:44;;;;;;;7.38;3.20;;;13.30;99.90;;;;;;5077894;28;20024;-83
2023/08/02 03:24:10;;;;;;;6.32;3.47;;;13.30;99.90;;;;;;5089497;28;20543;-83
2023/08/02 03:26:36;;;;;;;6.60;3.45;;;13.30;99.90;;;;;;5075829;28;20550;-83
2023/08/02 03:29:02;;;;;;;6.40;3.38;;;13.30;99.90;;;;;;5040582;28;20025;-83
2023/08/02 03:31:27;;;;;;;11.52;3.70;;;13.30;99.90;;;;;;5048831;28;20381;-83
2023/08/02 03:33:53;;;;;;;6.60;3.05;;;13.30;99.90;;;;;;5061083;28;20028;-83
2023/08/02 03:36:19;;;;;;;11.95;3.20;;;13.30;99.90;;;;;;5072673;28;20036;-83
2023/08/02 03:38:45;;;;;;;6.93;2.92;;;13.30;99.90;;;;;;5081585;28;20031;-83
2023/08/02 03:41:11;;;;;;;5.65;3.33;;;13.30;99.90;;;;;;5055255;28;20033;-83
2023/08/02 03:43:36;;;;;;;5.35;3.70;;;13.20;99.90;;;;;;5074026;28;20051;-83
2023/08/02 03:46:02;;;;;;;5.88;3.05;;;13.30;99.90;;;;;;5059556;28;20035;-84
2023/08/02 03:48:28;;;;;;;7.60;3.50;;;13.20;99.90;;;;;;5063075;28;20115;-85
2023/08/02 03:50:56;;;;;;;5.57;2.92;;;13.20;99.90;;;;;;5077224;28;20025;-84
2023/08/02 03:53:21;;;;;;;6.20;3.45;;;13.20;99.90;;;;;;5085113;28;20037;-84
2023/08/02 03:55:47;;;;;;;7.07;3.15;;;13.20;99.90;;;;;;5069587;28;20086;-83
2023/08/02 03:58:13;;;;;;;5.07;2.78;;;13.20;99.90;;;;;;5047768;28;20033;-85
2023/08/02 04:00:39;;;;;;;4.95;2.97;;;13.20;99.90;;;;;;5083164;28;20047;-84
2023/08/02 04:03:04;;;;;;;8.27;3.33;;;13.20;99.90;;;;;;5036017;28;20037;-85
2023/08/02 04:05:30;;;;;;;8.63;3.20;;;13.20;99.90;;;;;;5047895;28;20038;-84
2023/08/02 04:07:56;;;;;;;7.28;3.55;;;13.20;99.90;;;;;;5071557;28;20024;-85
2023/08/02 04:10:22;;;;;;;9.55;3.70;;;13.20;99.90;;;;;;5080517;28;20505;-84
2023/08/02 04:12:51;;;;;;;5.45;3.22;;;13.20;99.90;;;;;;5068861;28;20033;-84
2023/08/02 04:15:17;;;;;;;9.60;3.92;;;13.20;99.90;;;;;;5054628;28;20036;-85
2023/08/02 04:17:43;;;;;;;7.78;3.05;;;13.20;99.90;;;;;;5069142;28;20024;-86
2023/08/02 04:20:09;;;;;;;5.57;3.45;;;13.20;99.90;;;;;;5082037;28;20158;-87
2023/08/02 04:22:35;;;;;;;5.90;3.42;;;13.20;99.90;;;;;;5082676;28;20032;-85
2023/08/02 04:25:03;;;;;;;5.68;3.30;;;13.10;99.90;;;;;;5077109;28;20028;-84
2023/08/02 04:27:29;;;;;;;4.38;3.70;;;13.20;99.90;;;;;;5084098;28;20029;-84
2023/08/02 04:29:55;;;;;;;4.72;3.47;;;13.20;99.90;;;;;;5078631;28;20025;-84
2023/08/02 04:32:21;;;;;;;6.10;3.08;;;13.20;99.90;;;;;;5083440;28;20103;-83
2023/08/02 04:34:47;;;;;;;9.38;3.67;;;13.20;99.90;;;;;;5047392;28;20593;-86
2023/08/02 04:37:12;;;;;;;10.85;3.85;;;13.20;99.90;;;;;;5088503;28;20028;-83
2023/08/02 04:39:38;;;;;;;4.30;3.40;;;13.20;99.90;;;;;;5069975;28;20405;-84
2023/08/02 04:42:04;;;;;;;7.60;3.80;;;13.20;99.90;;;;;;5050061;28;20740;-82
2023/08/02 04:44:30;;;;;;;6.45;4.00;;;13.20;99.90;;;;;;5034113;28;20043;-84
2023/08/02 04:46:56;;;;;;;6.72;4.55;;;13.20;99.90;;;;;;5084981;28;20028;-84
2023/08/02 04:49:22;;;;;;;7.35;4.03;;;13.20;99.90;;;;;;5076192;28;20037;-85
2023/08/02 04:51:47;;;;;;;10.48;4.20;;;13.20;99.90;;;;;;5075144;28;20125;-84
2023/08/02 04:54:13;;;;;;;8.77;4.00;;;13.20;99.90;;;;;;5086642;28;20042;-83
2023/08/02 04:56:39;;;;;;;5.75;3.97;;;13.10;99.90;;;;;;5066645;28;20086;-84
2023/08/02 04:59:07;;;;;;;6.22;3.97;;;13.20;99.90;;;;;;5079919;28;20059;-83
2023/08/02 05:01:33;;;;;;;10.80;3.92;;;13.20;99.90;;;;;;5083544;28;20017;-84
2023/08/02 05:03:59;;;;;;;8.40;3.90;;;13.30;99.90;;;;;;5051471;28;20522;-84
2023/08/02 05:06:25;;;;;;;6.00;4.15;;;13.30;99.90;;;;;;5069871;28;20060;-82
2023/08/02 05:08:50;;;;;;;6.63;3.88;;;13.40;99.90;;;;;;5073202;28;20508;-84
2023/08/02 05:11:17;;;;;;;4.70;3.70;;;13.40;99.90;;;;;;5090085;28;20104;-83
2023/08/02 05:13:43;;;;;;;4.97;3.85;;;13.50;99.90;;;;;;5081262;28;20056;-83
2023/08/02 05:16:13;;;;;;;3.65;3.28;;;13.60;99.90;;;;;;5070310;28;20058;-83
2023/08/02 05:18:39;;;;;;;7.75;3.42;;;13.60;99.90;;;;;;5074133;28;20027;-83
2023/08/02 05:21:12;;;;;;;7.43;4.20;;;13.60;99.90;;;;;;5073921;28;20020;-85
2023/08/02 05:23:42;;;;;;;7.70;3.78;;;13.70;99.90;;;;;;5076032;28;20115;-84
2023/08/02 05:26:09;;;;;;;3.95;3.03;;;13.70;99.90;;;;;;5070562;28;20408;-83
2023/08/02 05:28:36;;;;;;;6.53;3.33;;;13.70;99.90;;;;;;5090848;28;20339;-85
2023/08/02 05:31:02;;;;;;;4.85;3.10;;;13.80;99.90;;;;;;5079095;28;20086;-83
2023/08/02 05:33:28;;;;;;;6.88;3.22;;;13.80;99.90;;;;;;5072694;28;20055;-84
2023/08/02 05:35:54;;;;;;;4.47;3.20;;;13.90;99.90;;;;;;5078232;28;20032;-85
2023/08/02 05:38:20;;;;;;;5.47;3.45;;;13.90;99.90;;;;;;5068449;28;20035;-84
2023/08/02 05:40:46;;;;;;;7.95;3.80;;;13.90;99.90;;;;;;5075751;28;20031;-83
2023/08/02 05:43:12;;;;;;;6.20;3.25;;;14.00;99.90;;;;;;5068197;28;20036;-83
2023/08/02 05:45:38;;;;;;;5.78;3.47;;;14.20;99.90;;;;;;5082532;28;20048;-84
2023/08/02 05:48:04;;;;;;;5.82;3.25;;;14.30;99.90;;;;;;5079258;28;20033;-84
2023/08/02 05:50:30;;;;;;;6.15;2.53;;;14.30;99.90;;;;;;5069076;28;20038;-83
2023/08/02 05:52:56;;;;;;;6.57;3.20;;;14.40;99.90;;;;;;5075155;28;20028;-83
2023/08/02 05:55:22;;;;;;;5.57;3.25;;;14.50;99.90;;;;;;5064387;28;20546;-84
2023/08/02 05:57:48;;;;;;;4.55;2.75;;;14.50;99.90;;;;;;5056020;28;20036;-86
2023/08/02 06:00:14;;;;;;;5.45;2.58;;;14.50;99.90;;;;;;5073709;28;20067;-86
2023/08/02 06:02:40;;;;;;;4.38;2.60;;;14.50;99.90;;;;;;5068945;28;20123;-84
2023/08/02 06:05:07;;;;;;;4.07;2.60;;;14.50;99.90;;;;;;5077569;28;20080;-83
2023/08/02 06:07:33;;;;;;;6.40;2.63;;;14.50;99.90;;;;;;5045251;28;20127;-85
2023/08/02 06:09:58;;;;;;;4.05;2.35;;;14.50;99.90;;;;;;5076614;28;20035;-84
2023/08/02 06:12:25;;;;;;;5.70;2.60;;;14.40;99.90;;;;;;5071809;28;20115;-85
2023/08/02 06:14:50;;;;;;;7.30;2.70;;;14.50;99.90;;;;;;5071667;28;20025;-85
2023/08/02 06:17:16;;;;;;;3.08;2.45;;;14.40;99.90;;;;;;5049841;28;20028;-86
2023/08/02 06:19:42;;;;;;;5.80;2.78;;;14.40;99.90;;;;;;5071318;28;20712;-85
2023/08/02 06:22:08;;;;;;;2.55;2.28;;;14.50;99.90;;;;;;5054322;28;20037;-83
2023/08/02 06:24:34;;;;;;;4.78;3.35;;;14.40;99.90;;;;;;5075278;28;20469;-85
2023/08/02 06:26:59;;;;;;;6.53;2.95;;;14.40;99.90;;;;;;5075597;28;20020;-86
2023/08/02 06:29:25;;;;;;;3.97;2.75;;;14.40;99.90;;;;;;5057392;28;20056;-85
2023/08/02 06:31:51;;;;;;;4.07;2.90;;;14.40;99.90;;;;;;5074014;28;20033;-85
2023/08/02 06:34:17;;;;;;;5.00;2.63;;;14.50;99.90;;;;;;5077564;28;20516;-84
2023/08/02 06:36:42;;;;;;;5.32;3.03;;;14.60;99.90;;;;;;5069265;28;20578;-83
2023/08/02 06:39:08;;;;;;;4.88;3.15;;;14.70;99.90;;;;;;5063516;28;20730;-84
2023/08/02 06:41:34;;;;;;;7.70;2.88;;;14.80;99.90;;;;;;5080703;28;20051;-84
2023/08/02 06:44:00;;;;;;;4.70;2.45;;;14.90;99.90;;;;;;5085520;28;20389;-84
2023/08/02 06:46:25;;;;;;;5.03;2.67;;;15.00;99.90;;;;;;5062329;28;20028;-85
2023/08/02 06:48:51;;;;;;;5.07;2.78;;;15.10;99.90;;;;;;5076068;28;20024;-85
2023/08/02 06:51:17;;;;;;;3.55;2.60;;;15.20;99.90;;;;;;5070099;28;20494;-84
2023/08/02 06:53:42;;;;;;;2.45;2.05;;;15.30;99.90;;;;;;5039571;28;20031;-83
2023/08/02 06:56:16;;;;;;;4.45;2.60;;;15.30;99.90;;;;;;5063302;28;20333;-85
2023/08/02 06:58:42;;;;;;;4.07;2.30;;;15.40;99.90;;;;;;5070249;28;20036;-86
2023/08/02 07:01:19;;;;;;;5.75;2.42;;;15.20;99.90;;;;;;5068738;28;20035;-86
2023/08/02 07:03:46;;;;;;;4.70;2.85;;;15.30;99.90;;;;;;5073677;28;20024;-85
2023/08/02 07:06:17;;;;;;;3.22;2.47;;;15.40;99.90;;;;;;5077994;28;20025;-84
2023/08/02 07:08:43;;;;;;;4.97;2.53;;;15.40;99.90;;;;;;5080641;28;20055;-87
2023/08/02 07:11:09;;;;;;;4.00;2.53;;;15.50;99.90;;;;;;5064489;28;20402;-85
2023/08/02 07:13:36;;;;;;;3.55;2.30;;;15.50;99.90;;;;;;5061032;28;20036;-86
2023/08/02 07:16:04;;;;;;;5.68;2.40;;;15.50;99.90;;;;;;5073059;28;20032;-83
2023/08/02 07:18:30;;;;;;;6.88;2.47;;;15.50;99.90;;;;;;5082897;28;20082;-85
2023/08/02 07:21:14;;;;;;;5.25;2.40;;;15.50;99.90;;;;;;5076924;28;20474;-85
2023/08/02 07:23:40;;;;;;;2.33;2.10;;;15.50;99.90;;;;;;5069783;28;20028;-85
2023/08/02 07:26:09;;;;;;;7.25;2.55;;;15.50;99.90;;;;;;5065255;28;20033;-83
2023/08/02 07:28:35;;;;;;;3.25;2.38;;;15.50;99.90;;;;;;5075724;28;20119;-84
2023/08/02 07:31:12;;;;;;;4.50;2.67;;;15.30;99.90;;;;;;5082588;28;20099;-82
2023/08/02 07:33:38;;;;;;;3.47;2.40;;;15.20;99.90;;;;;;5079022;28;20036;-84
2023/08/02 07:36:04;;;;;;;2.85;2.20;;;15.20;99.90;;;;;;5058302;28;20037;-82
2023/08/02 07:38:31;;;;;;;4.65;2.35;;;15.20;99.90;;;;;;5080197;28;20067;-85
2023/08/02 07:40:57;;;;;;;4.82;2.67;;;15.40;99.90;;;;;;5068590;28;20039;-84
2023/08/02 07:43:23;;;;;;;3.30;2.60;;;15.30;99.90;;;;;;5078118;28;20037;-83
2023/08/02 07:45:48;;;;;;;4.50;2.70;;;15.30;99.90;;;;;;5068830;28;20021;-84
2023/08/02 07:48:15;;;;;;;3.20;2.60;;;15.40;99.90;;;;;;5072574;28;20048;-83
2023/08/02 07:50:40;;;;;;;5.13;2.72;;;15.50;99.90;;;;;;5068791;28;20085;-84
2023/08/02 07:53:06;;;;;;;3.90;2.15;;;15.60;99.90;;;;;;5050530;28;20116;-84
2023/08/02 07:55:32;;;;;;;6.57;2.63;;;15.70;99.90;;;;;;5065631;28;20033;-85
2023/08/02 07:57:58;;;;;;;4.82;2.28;;;15.70;99.90;;;;;;5076597;28;20453;-83
2023/08/02 08:00:43;;;;;;;5.07;2.65;;;15.70;99.90;;;;;;5075333;28;20113;-84
2023/08/02 08:03:09;;;;;;;3.80;2.40;;;15.80;99.90;;;;;;5067353;28;20028;-85
2023/08/02 08:05:35;;;;;;;4.15;2.10;;;15.80;99.90;;;;;;5071418;28;20416;-85
2023/08/02 08:08:00;;;;;;;2.60;2.40;;;15.80;99.90;;;;;;5033231;28;20036;-84
2023/08/02 08:10:26;;;;;;;2.40;1.80;;;15.80;99.90;;;;;;5061282;28;20393;-85
2023/08/02 08:12:52;;;;;;;6.70;2.88;;;15.70;99.90;;;;;;5066138;28;20119;-83
2023/08/02 08:15:18;;;;;;;4.50;2.28;;;15.70;99.90;;;;;;5032172;28;20075;-84
2023/08/02 08:17:43;;;;;;;5.65;2.35;;;15.80;99.90;;;;;;5060997;28;20040;-85
2023/08/02 08:20:10;;;;;;;4.82;2.35;;;15.70;99.90;;;;;;5048368;28;20075;-83
2023/08/02 08:22:36;;;;;;;4.45;2.33;;;15.70;99.90;;;;;;5038870;28;20036;-84
2023/08/02 08:25:01;;;;;;;6.45;2.42;;;15.60;99.90;;;;;;5069594;28;20428;-82
2023/08/02 08:27:27;;;;;;;5.65;2.35;;;15.60;99.90;;;;;;5050230;28;20397;-83
2023/08/02 08:29:53;;;;;;;4.82;2.60;;;15.50;99.90;;;;;;5074948;28;20119;-84
2023/08/02 08:32:18;;;;;;;7.30;2.95;;;15.30;99.90;;;;;;5055235;28;20063;-86
2023/08/02 08:34:44;;;;;;;3.30;2.95;;;15.30;99.90;;;;;;5070025;28;20074;-85
2023/08/02 08:37:10;;;;;;;4.68;2.50;;;15.40;99.90;;;;;;5067936;28;20569;-85
2023/08/02 08:39:55;;;;;;;3.67;2.78;;;15.50;99.90;;;;;;5063846;28;20055;-85
2023/08/02 08:42:21;;;;;;;4.75;2.53;;;15.50;99.90;;;;;;5056591;28;20040;-86
2023/08/02 08:44:47;;;;;;;3.72;3.00;;;15.50;99.90;;;;;;5052873;28;20033;-86
2023/08/02 08:47:16;;;;;;;3.08;2.33;;;15.50;99.90;;;;;;5051451;28;20078;-84
2023/08/02 08:49:45;;;;;;;2.72;2.35;;;15.50;99.90;;;;;;5047328;28;20045;-85
2023/08/02 08:52:14;;;;;;;4.43;2.85;;;15.60;99.90;;;;;;5062883;28;20043;-84
2023/08/02 08:54:43;;;;;;;4.40;2.80;;;15.60;99.90;;;;;;5034637;28;20037;-87
2023/08/02 08:57:09;;;;;;;7.13;3.45;;;15.60;99.90;;;;;;5063060;28;20036;-85
2023/08/02 08:59:36;;;;;;;6.53;3.28;;;15.70;99.90;;;;;;5029193;28;20113;-85
2023/08/02 09:02:03;;;;;;;4.00;3.05;;;15.80;99.90;;;;;;5066541;28;20040;-87
2023/08/02 09:04:33;;;;;;;4.00;2.95;;;15.70;99.90;;;;;;5077675;28;20405;-87
2023/08/02 09:06:59;;;;;;;7.40;3.70;;;15.80;99.90;;;;;;5026875;28;20488;-87
2023/08/02 09:09:25;;;;;;;6.70;3.58;;;15.80;99.90;;;;;;5065680;28;20082;-86
2023/08/02 09:11:50;;;;;;;7.40;3.10;;;15.90;99.90;;;;;;5066160;28;20033;-85
2023/08/02 09:14:17;;;;;;;6.47;3.25;;;16.00;99.90;;;;;;5054382;28;20093;-87
2023/08/02 09:17:04;;;;;;;5.63;3.15;;;16.10;99.90;;;;;;5067279;28;20037;-85
2023/08/02 09:19:34;;;;;;;7.47;3.10;;;16.20;99.90;;;;;;5062252;28;20049;-87
2023/08/02 09:22:13;;;;;;;6.75;3.58;;;16.20;99.90;;;;;;5035014;28;20429;-84
2023/08/02 09:24:40;;;;;;;4.78;3.30;;;16.30;99.90;;;;;;5045170;28;20060;-86
2023/08/02 09:27:18;;;;;;;6.97;3.33;;;16.20;99.90;;;;;;5047088;28;20293;-84
2023/08/02 09:29:48;;;;;;;4.95;3.50;;;16.10;99.90;;;;;;5058018;28;20040;-87
2023/08/02 09:32:15;;;;;;;5.70;3.65;;;16.20;99.90;;;;;;5048175;28;20032;-86
2023/08/02 09:34:42;;;;;;;4.90;3.33;;;16.10;99.90;;;;;;5067426;28;20071;-85
2023/08/02 09:37:08;;;;;;;7.22;3.78;;;16.20;99.90;;;;;;5066037;28;20044;-83
2023/08/02 09:39:33;;;;;;;6.70;4.10;;;16.20;99.90;;;;;;5053900;28;20029;-84
2023/08/02 09:42:15;;;;;;;5.70;3.88;;;16.10;99.90;;;;;;5062076;28;20411;-81
2023/08/02 09:45:40;;;;;;;5.95;3.83;;;16.00;99.90;;;;;;5044143;28;20187;-85
2023/08/02 09:48:07;;;;;;;6.75;4.00;;;15.90;99.90;;;;;;5042020;28;20028;-81
2023/08/02 09:50:33;;;;;;;5.85;4.57;;;15.90;99.90;;;;;;5047003;28;20100;-85
2023/08/02 09:53:15;;;;;;;5.20;4.07;;;15.90;99.90;;;;;;5059724;28;20020;-84
2023/08/02 09:55:46;;;;;;;5.57;3.88;;;15.90;99.90;;;;;;5053477;28;20116;-85
2023/08/02 09:58:13;;;;;;;5.05;4.45;;;15.80;99.90;;;;;;5067080;28;20036;-85
2023/08/02 10:00:42;;;;;;;5.68;4.28;;;15.80;99.90;;;;;;5056691;28;20591;-87
2023/08/02 10:03:09;;;;;;;6.00;4.22;;;15.90;99.90;;;;;;5065481;28;20392;-87
2023/08/02 10:05:41;;;;;;;8.13;4.18;;;15.90;99.90;;;;;;5063600;28;20031;-85
2023/08/02 10:08:07;;;;;;;8.65;4.68;;;15.90;99.90;;;;;;5062910;28;20039;-84
2023/08/02 10:10:39;;;;;;;4.70;4.20;;;15.70;99.90;;;;;;5062034;28;20720;-86
2023/08/02 10:13:08;;;;;;;5.85;4.25;;;15.80;99.90;;;;;;5059855;28;20068;-82
2023/08/02 10:15:38;;;;;;;4.93;4.05;;;15.80;99.90;;;;;;5060839;28;20025;-84
2023/08/02 10:18:05;;;;;;;5.18;4.25;;;15.70;99.90;;;;;;5060479;28;20085;-84
2023/08/02 10:20:31;;;;;;;6.63;4.53;;;15.70;99.90;;;;;;5059674;28;20032;-85
2023/08/02 10:22:58;;;;;;;6.78;4.65;;;15.80;99.90;;;;;;5050253;28;20037;-84
2023/08/02 10:25:24;;;;;;;6.82;4.32;;;15.70;99.90;;;;;;5061045;28;20060;-86
2023/08/02 10:27:52;;;;;;;4.88;4.28;;;15.70;99.90;;;;;;5059747;28;20059;-85
2023/08/02 10:30:18;;;;;;;6.47;4.85;;;15.70;99.90;;;;;;5062646;28;20056;-85
2023/08/02 10:32:44;;;;;;;6.03;4.60;;;15.70;99.90;;;;;;5068349;28;20035;-82
2023/08/02 10:35:09;;;;;;;5.00;4.50;;;15.70;99.90;;;;;;5070434;28;20463;-83
2023/08/02 10:37:53;;;;;;;6.38;4.72;;;15.70;99.90;;;;;;5067110;28;20033;-84
2023/08/02 10:40:21;;;;;;;6.10;5.18;;;15.60;99.90;;;;;;5059743;28;20047;-81
2023/08/02 10:43:05;;;;;;;7.72;4.72;;;15.60;99.90;;;;;;5052175;28;20060;-83
2023/08/02 10:45:31;;;;;;;6.55;4.60;;;15.60;99.90;;;;;;5059930;28;20566;-83
2023/08/02 10:48:22;;;;;;;5.95;4.95;;;15.60;99.90;;;;;;5054911;28;20029;-83
2023/08/02 10:50:48;;;;;;;5.60;4.80;;;15.50;99.90;;;;;;5062440;28;20032;-82
2023/08/02 10:53:14;;;;;;;6.82;5.03;;;15.60;99.90;;;;;;5069065;28;20079;-85
2023/08/02 10:56:08;;;;;;;5.30;4.32;;;15.60;99.90;;;;;;5050963;28;20123;-84
2023/08/02 10:58:51;;;;;;;7.20;4.07;;;15.60;99.90;;;;;;5060153;28;20048;-83
2023/08/02 11:01:18;;;;;;;5.45;4.20;;;15.70;99.90;;;;;;5065888;28;20037;-84
2023/08/02 11:03:44;;;;;;;5.65;4.90;;;15.60;99.90;;;;;;5075722;28;20044;-84
2023/08/02 11:06:26;;;;;;;5.72;4.50;;;15.60;99.90;;;;;;5074983;28;20024;-82
2023/08/02 11:08:52;;;;;;;5.07;4.63;;;15.70;99.90;;;;;;5069115;28;20552;-85
2023/08/02 11:11:29;;;;;;;5.75;4.63;;;15.70;99.90;;;;;;5076620;28;20044;-83
2023/08/02 11:13:55;;;;;;;4.88;4.38;;;15.70;99.90;;;;;;5057311;28;20033;-85
2023/08/02 11:16:22;;;;;;;7.97;4.38;;;15.70;99.90;;;;;;5060440;28;20126;-84
2023/08/02 11:18:49;;;;;;;6.50;4.30;;;15.80;99.90;;;;;;5072615;28;20029;-83
2023/08/02 11:21:15;;;;;;;6.15;4.30;;;15.80;99.90;;;;;;5078182;28;20064;-85
2023/08/02 11:23:42;;;;;;;6.32;4.78;;;15.90;99.90;;;;;;5066329;28;20079;-81
2023/08/02 11:26:15;;;;;;;5.40;4.15;;;15.90;99.90;;;;;;5063467;28;20024;-85
2023/08/02 11:28:43;;;;;;;6.72;4.72;;;16.00;99.90;;;;;;5071341;28;20062;-83
2023/08/02 11:31:12;;;;;;;6.90;4.57;;;15.90;99.90;;;;;;5066643;28;20036;-82
2023/08/02 11:33:39;;;;;;;6.15;4.30;;;16.00;99.90;;;;;;5068295;28;20037;-84
2023/08/02 11:36:06;;;;;;;8.27;4.30;;;16.00;99.90;;;;;;5063596;28;20031;-83
2023/08/02 11:38:32;;;;;;;4.70;3.80;;;16.00;99.90;;;;;;5061892;28;20461;-84
2023/08/02 11:40:58;;;;;;;5.50;4.00;;;16.00;99.90;;;;;;5070505;28;20032;-83
2023/08/02 11:43:34;;;;;;;5.32;4.15;;;15.90;99.90;;;;;;5068177;28;20037;-82
2023/08/02 11:46:15;;;;;;;5.40;3.58;;;15.90;99.90;;;;;;5061812;28;20028;-83
2023/08/02 11:48:41;;;;;;;5.22;3.83;;;15.80;99.90;;;;;;5066890;28;20029;-84
2023/08/02 11:51:09;;;;;;;7.43;3.45;;;15.80;99.90;;;;;;5072269;28;20016;-82
2023/08/02 11:53:45;;;;;;;5.45;3.55;;;15.80;99.90;;;;;;5073037;28;20063;-84
2023/08/02 11:56:11;;;;;;;5.43;3.50;;;15.70;99.90;;;;;;5075026;28;20020;-83
2023/08/02 11:58:38;;;;;;;3.80;3.28;;;15.70;99.90;;;;;;5049955;28;20597;-83
2023/08/02 12:01:04;;;;;;;5.07;3.38;;;15.60;99.90;;;;;;5068737;28;20029;-84
2023/08/02 12:03:29;;;;;;;3.75;3.33;;;15.60;99.90;;;;;;5068244;28;20436;-81
2023/08/02 12:06:00;;;;;;;3.80;3.45;;;15.60;99.90;;;;;;5074695;28;20571;-85
2023/08/02 12:08:26;;;;;;;3.92;3.33;;;15.70;99.90;;;;;;5065327;28;20067;-83
2023/08/02 12:10:52;;;;;;;6.63;3.45;;;15.80;99.90;;;;;;5070799;28;20044;-85
2023/08/02 12:13:18;;;;;;;3.15;2.90;;;15.90;99.90;;;;;;5058083;28;20033;-84
2023/08/02 12:16:03;;;;;;;2.63;2.42;;;15.90;99.90;;;;;;5071646;28;20048;-83
2023/08/02 12:18:29;;;;;;;3.40;2.17;;;16.00;99.90;;;;;;5055038;28;20707;-86
2023/08/02 12:20:55;;;;;;;3.05;2.55;;;16.00;99.90;;;;;;5040488;28;20183;-83
2023/08/02 12:23:30;;;;;;;3.33;2.03;;;15.90;99.90;;;;;;5078410;28;20040;-85
2023/08/02 12:25:56;;;;;;;1.90;1.80;;;15.90;99.90;;;;;;5070099;28;20115;-84
2023/08/02 12:28:22;;;;;;;2.15;1.85;;;16.00;99.90;;;;;;5053645;28;20063;-82
2023/08/02 12:31:00;;;;;;;1.90;1.63;;;16.00;99.90;;;;;;5068958;28;20055;-82
2023/08/02 12:33:26;;;;;;;2.20;2.00;;;16.00;99.90;;;;;;5077296;28;20029;-82
2023/08/02 12:35:52;;;;;;;2.25;1.92;;;16.00;99.90;;;;;;5075062;28;20036;-82
2023/08/02 12:38:18;;;;;;;3.20;2.00;;;16.00;99.90;;;;;;5060919;28;20043;-82
2023/08/02 12:40:46;;;;;;;2.70;2.08;;;16.00;99.90;;;;;;5068767;28;20040;-83
2023/08/02 12:43:12;;;;;;;2.53;1.88;;;16.00;99.90;;;;;;5090625;28;20506;-80
2023/08/02 12:45:37;;;;;;;2.33;2.10;;;15.90;99.90;;;;;;5068715;28;20107;-81
2023/08/02 12:48:04;;;;;;;6.45;2.30;;;15.90;99.90;;;;;;5056895;28;20044;-82